Time;durP1;ratioP1;P1;durP2;ratioP2;P2;SDS_P1;SDS_P2;PMS_P1;PMS_P2;Temp;Humidity;BMP_temperature;BMP_pressure;BME280_temperature;BME280_humidity;BME280_pressure;Samples;Min_cycle;Max_cycle;Signal;HPM_P1;HPM_P2
2022/12/29 00:01:55;;;;;;;7.78;2.97;;;;;;;;;;4986185;28;20366;-89
2022/12/29 00:04:25;;;;;;;5.15;3.10;;;;;;;;;;4959230;28;20053;-89
2022/12/29 00:06:55;;;;;;;5.93;3.33;;;;;;;;;;4940619;28;20066;-89
2022/12/29 00:09:25;;;;;;;7.72;3.50;;;;;;;;;;4971367;28;20034;-89
2022/12/29 00:11:53;;;;;;;7.13;3.17;;;;;;;;;;4970261;28;20057;-89
2022/12/29 00:17:12;;;;;;;6.47;3.50;;;;;;;;;;4978332;28;20107;-89
2022/12/29 00:37:10;;;;;;;9.18;3.78;;;;;;;;;;4973292;28;20039;-89
2022/12/29 00:45:15;;;;;;;5.18;3.03;;;;;;;;;;4971796;28;20039;-89
2022/12/29 00:47:43;;;;;;;7.78;3.65;;;;;;;;;;4959291;28;20090;-89
2022/12/29 00:50:11;;;;;;;6.65;3.60;;;;;;;;;;4974422;28;20039;-89
2022/12/29 00:52:39;;;;;;;8.75;3.60;;;;;;;;;;4978350;28;20122;-89
2022/12/29 00:55:36;;;;;;;5.35;3.63;;;;;;;;;;4969165;28;20590;-89
2022/12/29 00:58:10;;;;;;;7.75;3.70;;;;;;;;;;4976409;28;20493;-89
2022/12/29 01:00:37;;;;;;;6.82;3.35;;;;;;;;;;5000060;28;20047;-88
2022/12/29 01:03:30;;;;;;;6.13;3.60;;;;;;;;;;4981736;28;20043;-89
2022/12/29 01:06:01;;;;;;;6.07;3.40;;;;;;;;;;4976424;28;20046;-89
2022/12/29 01:08:28;;;;;;;5.78;3.50;;;;;;;;;;4983944;28;20035;-88
2022/12/29 01:11:21;;;;;;;5.30;3.15;;;;;;;;;;4980506;28;20038;-89
2022/12/29 01:13:49;;;;;;;6.38;3.35;;;;;;;;;;4994866;28;20043;-89
2022/12/29 01:16:21;;;;;;;7.40;3.47;;;;;;;;;;4991776;28;20055;-89
2022/12/29 01:18:49;;;;;;;8.50;3.55;;;;;;;;;;4977996;28;20047;-89
2022/12/29 01:21:17;;;;;;;5.80;3.65;;;;;;;;;;4962413;28;20077;-89
2022/12/29 01:24:15;;;;;;;6.35;3.28;;;;;;;;;;4978885;28;20478;-89
2022/12/29 01:26:44;;;;;;;6.25;3.22;;;;;;;;;;4961548;28;20043;-89
2022/12/29 01:29:12;;;;;;;5.63;3.55;;;;;;;;;;4972039;28;20077;-89
2022/12/29 01:31:39;;;;;;;8.18;3.28;;;;;;;;;;4993487;28;20089;-90
2022/12/29 01:34:09;;;;;;;6.35;3.33;;;;;;;;;;4957914;28;20043;-89
2022/12/29 01:36:38;;;;;;;5.85;3.40;;;;;;;;;;4971687;28;20043;-89
2022/12/29 01:39:06;;;;;;;8.57;3.38;;;;;;;;;;4979192;28;20050;-89
2022/12/29 01:41:34;;;;;;;5.45;3.50;;;;;;;;;;4961942;28;20051;-89
2022/12/29 01:44:02;;;;;;;5.43;3.17;;;;;;;;;;4965895;28;20054;-89
2022/12/29 01:46:35;;;;;;;8.13;3.75;;;;;;;;;;4992761;28;20069;-89
2022/12/29 01:49:10;;;;;;;6.57;3.38;;;;;;;;;;4974959;28;20043;-88
2022/12/29 01:51:54;;;;;;;5.82;3.53;;;;;;;;;;4962681;28;20502;-89
2022/12/29 01:54:30;;;;;;;5.30;3.28;;;;;;;;;;4968242;28;20038;-89
2022/12/29 01:57:02;;;;;;;5.45;3.20;;;;;;;;;;4960065;28;20050;-89
2022/12/29 01:59:40;;;;;;;5.85;3.65;;;;;;;;;;4961501;28;20038;-89
2022/12/29 02:02:47;;;;;;;5.10;3.35;;;;;;;;;;4972358;28;20386;-89
2022/12/29 02:05:48;;;;;;;5.65;3.50;;;;;;;;;;4969913;28;20138;-89
2022/12/29 02:08:16;;;;;;;9.60;3.55;;;;;;;;;;4989384;28;20110;-89
2022/12/29 02:10:50;;;;;;;9.80;3.47;;;;;;;;;;4975455;28;20030;-89
2022/12/29 02:13:17;;;;;;;10.05;3.63;;;;;;;;;;4972965;28;20114;-89
2022/12/29 02:16:14;;;;;;;6.68;3.90;;;;;;;;;;4966603;28;20079;-89
2022/12/29 02:19:19;;;;;;;7.88;4.00;;;;;;;;;;4982695;28;20039;-89
2022/12/29 02:22:03;;;;;;;6.70;3.63;;;;;;;;;;4985074;28;20083;-89
2022/12/29 02:24:56;;;;;;;9.18;3.85;;;;;;;;;;4973099;28;20047;-89
2022/12/29 02:27:42;;;;;;;5.03;3.33;;;;;;;;;;4987185;28;20434;-89
2022/12/29 02:30:34;;;;;;;5.85;3.47;;;;;;;;;;4972154;28;20069;-89
2022/12/29 02:33:27;;;;;;;5.93;3.92;;;;;;;;;;4958284;28;20060;-89
2022/12/29 02:36:05;;;;;;;6.22;3.80;;;;;;;;;;4957578;28;20054;-89
2022/12/29 02:39:06;;;;;;;9.30;3.50;;;;;;;;;;4968327;28;20093;-89
2022/12/29 02:41:34;;;;;;;5.60;3.50;;;;;;;;;;4963705;28;20054;-89
2022/12/29 02:44:24;;;;;;;6.03;3.53;;;;;;;;;;4966626;28;20047;-89
2022/12/29 02:47:09;;;;;;;8.27;3.45;;;;;;;;;;4968016;28;20066;-89
2022/12/29 02:49:57;;;;;;;5.38;3.38;;;;;;;;;;4970082;28;20065;-89
2022/12/29 02:52:46;;;;;;;5.07;3.03;;;;;;;;;;4969936;28;20035;-89
2022/12/29 02:55:16;;;;;;;6.40;3.38;;;;;;;;;;4988966;28;20039;-89
2022/12/29 02:58:16;;;;;;;6.30;3.20;;;;;;;;;;4967813;28;20094;-89
2022/12/29 03:00:58;;;;;;;6.30;3.30;;;;;;;;;;4966881;28;20134;-89
2022/12/29 03:04:49;;;;;;;5.05;3.08;;;;;;;;;;4970836;28;20039;-89
2022/12/29 03:07:49;;;;;;;9.57;3.10;;;;;;;;;;4937308;29;20074;-89
2022/12/29 03:10:37;;;;;;;10.80;3.38;;;;;;;;;;4939045;29;20047;-89
2022/12/29 03:16:45;;;;;;;8.75;3.10;;;;;;;;;;4954109;29;20058;-89
2022/12/29 03:19:46;;;;;;;5.13;3.22;;;;;;;;;;4953825;29;20107;-89
2022/12/29 03:22:28;;;;;;;6.28;3.08;;;;;;;;;;4934990;29;20081;-89
2022/12/29 03:25:15;;;;;;;5.20;2.95;;;;;;;;;;4938419;29;20171;-89
2022/12/29 03:27:52;;;;;;;4.88;2.97;;;;;;;;;;4937641;29;20075;-89
2022/12/29 03:30:29;;;;;;;4.22;2.70;;;;;;;;;;4937248;29;20047;-89
2022/12/29 03:33:04;;;;;;;9.80;2.83;;;;;;;;;;4938696;29;20106;-89
2022/12/29 03:35:37;;;;;;;4.45;2.90;;;;;;;;;;4937926;29;20521;-89
2022/12/29 03:38:33;;;;;;;5.45;3.08;;;;;;;;;;4934287;29;20047;-89
2022/12/29 03:41:10;;;;;;;4.68;3.10;;;;;;;;;;4948235;28;20602;-89
2022/12/29 03:43:43;;;;;;;4.60;2.70;;;;;;;;;;4963968;28;20055;-89
2022/12/29 03:46:11;;;;;;;4.10;2.50;;;;;;;;;;4972911;28;20039;-89
2022/12/29 03:48:42;;;;;;;4.90;2.70;;;;;;;;;;4982535;28;20406;-89
2022/12/29 03:51:33;;;;;;;3.78;2.00;;;;;;;;;;4974617;28;20035;-89
2022/12/29 03:54:02;;;;;;;5.15;2.80;;;;;;;;;;4957809;28;20738;-89
2022/12/29 03:56:29;;;;;;;6.80;2.80;;;;;;;;;;4977492;28;20057;-89
2022/12/29 03:58:57;;;;;;;4.00;2.60;;;;;;;;;;4988085;28;20090;-89
2022/12/29 04:01:40;;;;;;;5.85;2.88;;;;;;;;;;4973333;28;20031;-89
2022/12/29 04:04:31;;;;;;;5.53;2.67;;;;;;;;;;4993838;28;20031;-89
2022/12/29 04:07:04;;;;;;;6.65;3.15;;;;;;;;;;4972629;28;20062;-89
2022/12/29 04:12:51;;;;;;;4.57;2.17;;;;;;;;;;4977396;28;20327;-89
2022/12/29 04:15:19;;;;;;;4.97;2.78;;;;;;;;;;4970357;28;20058;-89
2022/12/29 04:17:47;;;;;;;4.72;2.38;;;;;;;;;;4975732;28;20050;-89
2022/12/29 04:23:07;;;;;;;4.65;2.58;;;;;;;;;;4973391;28;20119;-89
2022/12/29 04:25:40;;;;;;;3.80;2.15;;;;;;;;;;4989529;28;21854;-89
2022/12/29 04:28:15;;;;;;;4.82;2.10;;;;;;;;;;4973249;28;20489;-89
2022/12/29 04:30:46;;;;;;;4.18;2.30;;;;;;;;;;4974395;28;20031;-89
2022/12/29 04:33:43;;;;;;;3.70;2.10;;;;;;;;;;4969487;28;20106;-89
2022/12/29 04:36:11;;;;;;;3.70;2.05;;;;;;;;;;4958845;28;20078;-88
2022/12/29 04:38:39;;;;;;;4.88;2.20;;;;;;;;;;4985549;28;20133;-89
2022/12/29 04:41:10;;;;;;;3.38;2.00;;;;;;;;;;4953873;28;20698;-89
2022/12/29 04:43:40;;;;;;;4.55;2.05;;;;;;;;;;4985672;28;20031;-89
2022/12/29 04:46:31;;;;;;;8.35;2.10;;;;;;;;;;4912732;29;20052;-89
2022/12/29 04:49:09;;;;;;;3.92;2.03;;;;;;;;;;4896891;29;20059;-89
2022/12/29 04:52:04;;;;;;;3.97;2.20;;;;;;;;;;4899689;29;20052;-88
2022/12/29 04:54:31;;;;;;;3.28;1.80;;;;;;;;;;4916723;29;20048;-88
2022/12/29 04:57:07;;;;;;;3.67;1.75;;;;;;;;;;4902822;29;20143;-89
2022/12/29 04:59:37;;;;;;;3.65;2.03;;;;;;;;;;4900415;29;20063;-89
2022/12/29 05:02:05;;;;;;;3.50;2.10;;;;;;;;;;4899121;29;20135;-89
2022/12/29 05:04:35;;;;;;;4.13;1.90;;;;;;;;;;4899400;29;20060;-89
2022/12/29 05:07:03;;;;;;;6.78;1.88;;;;;;;;;;4903036;29;20146;-89
2022/12/29 05:09:31;;;;;;;3.47;1.50;;;;;;;;;;4917089;29;20048;-89
2022/12/29 05:11:59;;;;;;;5.55;2.22;;;;;;;;;;4871671;29;20048;-89
2022/12/29 05:14:30;;;;;;;5.65;1.80;;;;;;;;;;4918890;29;20561;-89
2022/12/29 05:16:57;;;;;;;3.53;1.80;;;;;;;;;;4889677;29;20144;-89
2022/12/29 05:19:25;;;;;;;2.95;1.65;;;;;;;;;;4902235;29;20044;-90
2022/12/29 05:21:54;;;;;;;4.80;1.90;;;;;;;;;;4890563;29;20055;-89
2022/12/29 05:24:21;;;;;;;3.80;1.95;;;;;;;;;;4976321;28;20057;-90
2022/12/29 05:26:52;;;;;;;2.85;1.50;;;;;;;;;;4943933;28;20389;-89
2022/12/29 05:29:37;;;;;;;3.13;1.92;;;;;;;;;;4972524;28;20426;-89
2022/12/29 05:32:29;;;;;;;4.18;2.03;;;;;;;;;;4976358;28;20089;-89
2022/12/29 05:34:57;;;;;;;3.42;2.05;;;;;;;;;;4973325;28;20464;-89
2022/12/29 05:37:49;;;;;;;3.08;1.73;;;;;;;;;;4971775;28;20047;-89
2022/12/29 05:40:17;;;;;;;4.80;2.00;;;;;;;;;;4946447;28;20122;-90
2022/12/29 05:42:45;;;;;;;4.20;2.00;;;;;;;;;;4990779;28;20042;-89
2022/12/29 05:45:31;;;;;;;3.00;1.80;;;;;;;;;;4968825;28;20047;-89
2022/12/29 05:51:36;;;;;;;3.85;1.85;;;;;;;;;;4956875;28;20426;-88
2022/12/29 05:54:28;;;;;;;5.40;1.88;;;;;;;;;;4955212;28;20074;-89
2022/12/29 05:56:57;;;;;;;3.15;1.85;;;;;;;;;;4959925;28;20050;-89
2022/12/29 05:59:25;;;;;;;3.88;2.10;;;;;;;;;;4974372;28;20089;-89
2022/12/29 06:01:53;;;;;;;3.30;1.88;;;;;;;;;;4983779;28;20043;-89
2022/12/29 06:04:21;;;;;;;6.35;1.90;;;;;;;;;;4973929;28;20050;-89
2022/12/29 06:06:50;;;;;;;3.58;1.92;;;;;;;;;;4971850;28;20055;-89
2022/12/29 06:09:43;;;;;;;3.30;2.10;;;;;;;;;;4984273;28;20042;-89
2022/12/29 06:12:16;;;;;;;3.42;1.98;;;;;;;;;;4974258;28;20126;-88
2022/12/29 06:14:45;;;;;;;3.38;1.70;;;;;;;;;;4985619;28;20422;-89
2022/12/29 06:17:13;;;;;;;4.75;1.92;;;;;;;;;;4940325;28;20074;-89
2022/12/29 06:19:42;;;;;;;4.95;1.92;;;;;;;;;;4952627;28;20051;-89
2022/12/29 06:22:11;;;;;;;3.78;2.05;;;;;;;;;;4967202;28;20500;-89
2022/12/29 06:24:46;;;;;;;4.85;1.83;;;;;;;;;;4967023;28;20046;-89
2022/12/29 06:27:13;;;;;;;4.20;1.92;;;;;;;;;;4950046;28;20050;-89
2022/12/29 06:29:42;;;;;;;3.13;1.85;;;;;;;;;;4969384;28;20493;-89
2022/12/29 06:32:10;;;;;;;3.80;1.90;;;;;;;;;;4954669;28;20054;-89
2022/12/29 06:34:48;;;;;;;3.00;1.77;;;;;;;;;;4976189;28;20050;-89
2022/12/29 06:37:19;;;;;;;3.25;1.70;;;;;;;;;;4976991;28;20066;-89
2022/12/29 06:39:47;;;;;;;4.78;1.88;;;;;;;;;;4985412;28;20122;-90
2022/12/29 06:42:15;;;;;;;2.90;1.63;;;;;;;;;;4960246;28;20042;-89
2022/12/29 06:45:07;;;;;;;4.13;1.80;;;;;;;;;;4970338;28;20070;-90
2022/12/29 06:47:35;;;;;;;3.80;1.90;;;;;;;;;;4974430;28;20042;-90
2022/12/29 06:50:08;;;;;;;4.97;2.10;;;;;;;;;;4973862;28;20043;-89
2022/12/29 06:52:35;;;;;;;6.13;1.50;;;;;;;;;;4985201;28;20043;-89
2022/12/29 06:55:04;;;;;;;3.65;1.70;;;;;;;;;;4966650;28;20038;-89
2022/12/29 06:57:32;;;;;;;2.53;1.50;;;;;;;;;;4968993;28;20039;-89
2022/12/29 06:59:59;;;;;;;4.55;1.60;;;;;;;;;;4956388;28;20065;-89
2022/12/29 07:02:27;;;;;;;2.42;1.50;;;;;;;;;;4956911;28;20548;-89
2022/12/29 07:04:55;;;;;;;3.97;1.60;;;;;;;;;;4959030;28;20043;-89
2022/12/29 07:07:23;;;;;;;2.85;1.60;;;;;;;;;;4955589;28;20058;-89
2022/12/29 07:09:51;;;;;;;3.60;1.88;;;;;;;;;;4972693;28;20509;-89
2022/12/29 07:12:19;;;;;;;2.78;1.50;;;;;;;;;;4966936;28;20042;-89
2022/12/29 07:15:12;;;;;;;2.95;1.60;;;;;;;;;;4968632;28;20035;-89
2022/12/29 07:17:40;;;;;;;3.63;1.80;;;;;;;;;;4964978;28;20070;-89
2022/12/29 07:20:08;;;;;;;2.75;1.50;;;;;;;;;;4972065;28;20078;-89
2022/12/29 07:22:36;;;;;;;3.75;1.67;;;;;;;;;;4990589;28;20042;-89
2022/12/29 07:25:04;;;;;;;3.78;1.83;;;;;;;;;;4976002;28;20437;-89
2022/12/29 07:27:32;;;;;;;3.00;1.80;;;;;;;;;;4985134;28;20074;-89
2022/12/29 07:30:27;;;;;;;3.70;2.10;;;;;;;;;;4974250;28;20055;-89
2022/12/29 07:33:19;;;;;;;3.17;1.88;;;;;;;;;;4981309;28;20042;-89
2022/12/29 07:35:48;;;;;;;5.43;2.10;;;;;;;;;;4974312;28;20492;-88
2022/12/29 07:38:19;;;;;;;3.33;1.90;;;;;;;;;;4959699;28;20066;-89
2022/12/29 07:40:47;;;;;;;3.63;1.95;;;;;;;;;;4969066;28;20074;-90
2022/12/29 07:43:15;;;;;;;2.60;1.58;;;;;;;;;;4979078;28;20107;-89
2022/12/29 07:45:58;;;;;;;4.55;1.80;;;;;;;;;;4973162;28;23938;-90
2022/12/29 07:48:28;;;;;;;4.85;2.00;;;;;;;;;;4989556;28;20051;-90
2022/12/29 07:50:55;;;;;;;5.45;2.10;;;;;;;;;;4958228;28;20184;-90
2022/12/29 07:53:24;;;;;;;2.80;1.60;;;;;;;;;;4975851;28;20139;-90
2022/12/29 07:55:51;;;;;;;4.32;1.77;;;;;;;;;;4964712;28;20058;-90
2022/12/29 07:58:19;;;;;;;5.00;1.98;;;;;;;;;;4973728;28;20596;-90
2022/12/29 08:00:53;;;;;;;3.88;2.30;;;;;;;;;;4982181;28;20164;-90
2022/12/29 08:03:43;;;;;;;3.45;2.25;;;;;;;;;;4980469;28;20385;-90
2022/12/29 08:06:12;;;;;;;5.72;2.42;;;;;;;;;;4964859;28;20082;-90
2022/12/29 08:08:40;;;;;;;4.90;2.08;;;;;;;;;;4977728;28;20071;-90
2022/12/29 08:11:07;;;;;;;3.78;2.15;;;;;;;;;;4974107;28;20035;-90
2022/12/29 08:13:35;;;;;;;5.07;2.42;;;;;;;;;;4978907;28;20047;-90
2022/12/29 08:16:04;;;;;;;3.92;2.33;;;;;;;;;;4972139;28;20039;-90
2022/12/29 08:18:56;;;;;;;2.80;1.65;;;;;;;;;;4974118;28;20034;-89
2022/12/29 08:21:24;;;;;;;3.67;1.85;;;;;;;;;;4979762;28;20066;-89
2022/12/29 08:23:51;;;;;;;3.20;1.55;;;;;;;;;;4989694;28;20064;-90
2022/12/29 08:26:23;;;;;;;8.05;1.63;;;;;;;;;;4976005;28;20136;-90
2022/12/29 08:28:58;;;;;;;3.75;1.45;;;;;;;;;;4987627;28;20057;-90
2022/12/29 08:31:30;;;;;;;4.47;1.60;;;;;;;;;;4977935;28;20047;-90
2022/12/29 08:33:59;;;;;;;2.45;1.30;;;;;;;;;;4974507;28;20043;-89
2022/12/29 08:36:27;;;;;;;5.82;1.85;;;;;;;;;;4945198;28;20070;-90
2022/12/29 08:39:19;;;;;;;5.32;2.00;;;;;;;;;;4966989;28;20046;-89
2022/12/29 08:41:52;;;;;;;3.47;1.60;;;;;;;;;;4991878;28;20135;-89
2022/12/29 08:44:20;;;;;;;3.72;1.80;;;;;;;;;;4971837;28;20049;-90
2022/12/29 08:46:52;;;;;;;5.53;2.38;;;;;;;;;;4983129;28;20069;-89
2022/12/29 08:49:19;;;;;;;3.58;2.08;;;;;;;;;;4973264;28;20042;-90
2022/12/29 08:52:11;;;;;;;5.97;1.80;;;;;;;;;;4974572;28;20122;-90
2022/12/29 08:54:43;;;;;;;4.28;1.88;;;;;;;;;;4983447;28;20049;-89
2022/12/29 08:57:11;;;;;;;4.30;2.00;;;;;;;;;;4969669;28;20043;-89
2022/12/29 08:59:53;;;;;;;6.50;2.22;;;;;;;;;;4968117;28;20067;-90
2022/12/29 09:02:21;;;;;;;4.00;1.67;;;;;;;;;;4951243;28;20070;-89
2022/12/29 09:04:57;;;;;;;3.55;1.67;;;;;;;;;;4969805;28;20497;-90
2022/12/29 09:07:24;;;;;;;3.55;1.33;;;;;;;;;;4951649;28;20047;-90
2022/12/29 09:09:52;;;;;;;5.10;1.65;;;;;;;;;;4982364;28;20149;-89
2022/12/29 09:12:19;;;;;;;2.25;1.30;;;;;;;;;;4954148;28;20053;-89
2022/12/29 09:14:52;;;;;;;3.20;1.27;;;;;;;;;;4967736;28;20046;-89
2022/12/29 09:20:06;;;;;;;2.90;1.60;;;;;;;;;;4963148;28;20094;-89
2022/12/29 09:23:01;;;;;;;2.75;1.20;;;;;;;;;;4970141;28;20117;-89
2022/12/29 09:25:30;;;;;;;4.43;1.10;;;;;;;;;;4973405;28;20074;-89
2022/12/29 09:27:57;;;;;;;4.72;1.50;;;;;;;;;;4974897;28;20065;-89
2022/12/29 09:30:25;;;;;;;3.28;1.30;;;;;;;;;;4959304;28;20082;-89
2022/12/29 09:33:18;;;;;;;6.03;1.20;;;;;;;;;;4970692;28;20035;-89
2022/12/29 09:35:55;;;;;;;4.53;1.13;;;;;;;;;;4968095;28;20446;-89
2022/12/29 09:38:25;;;;;;;5.78;1.30;;;;;;;;;;4972716;28;20453;-89
2022/12/29 09:40:59;;;;;;;6.70;1.38;;;;;;;;;;4969455;28;20043;-89
2022/12/29 09:43:36;;;;;;;2.35;1.10;;;;;;;;;;4975027;28;20038;-89
2022/12/29 09:46:11;;;;;;;3.80;1.40;;;;;;;;;;4987254;28;20050;-90
2022/12/29 09:49:13;;;;;;;4.85;1.15;;;;;;;;;;4979704;28;20043;-90
2022/12/29 09:51:47;;;;;;;5.68;1.40;;;;;;;;;;4970142;28;20055;-90
2022/12/29 09:54:43;;;;;;;4.75;0.90;;;;;;;;;;4964222;28;20053;-91
2022/12/29 09:57:47;;;;;;;3.53;1.00;;;;;;;;;;4976012;28;20031;-92
2022/12/29 10:00:18;;;;;;;5.45;1.25;;;;;;;;;;4975198;28;20039;-90
2022/12/29 10:03:14;;;;;;;5.97;1.10;;;;;;;;;;4967016;28;20763;-90
2022/12/29 10:05:52;;;;;;;4.15;0.95;;;;;;;;;;4968317;28;20117;-90
2022/12/29 10:09:13;;;;;;;2.70;0.98;;;;;;;;;;4971443;28;20039;-90
2022/12/29 10:11:57;;;;;;;5.10;1.15;;;;;;;;;;4970248;28;20078;-89
2022/12/29 10:14:31;;;;;;;3.83;1.05;;;;;;;;;;4985899;28;20042;-89
2022/12/29 10:17:19;;;;;;;5.38;0.93;;;;;;;;;;4976461;28;20042;-89
2022/12/29 10:19:45;;;;;;;5.43;0.93;;;;;;;;;;4968274;28;20049;-89
2022/12/29 10:22:38;;;;;;;4.03;1.10;;;;;;;;;;4973778;28;20038;-90
2022/12/29 10:25:16;;;;;;;5.78;1.10;;;;;;;;;;4953793;28;20133;-90
2022/12/29 10:27:48;;;;;;;4.88;0.95;;;;;;;;;;4951563;28;20059;-89
2022/12/29 10:30:17;;;;;;;5.57;1.42;;;;;;;;;;4970548;28;20444;-90
2022/12/29 10:32:54;;;;;;;4.43;0.98;;;;;;;;;;4967983;28;20043;-90
2022/12/29 10:35:29;;;;;;;6.10;1.15;;;;;;;;;;4969128;28;20045;-89
2022/12/29 10:38:05;;;;;;;4.85;1.25;;;;;;;;;;4955278;28;20054;-89
2022/12/29 10:40:42;;;;;;;5.80;1.10;;;;;;;;;;4955772;28;20122;-90
2022/12/29 10:43:31;;;;;;;3.83;1.00;;;;;;;;;;4984249;28;20039;-90
2022/12/29 10:46:09;;;;;;;7.25;1.10;;;;;;;;;;4971925;28;20077;-89
2022/12/29 10:48:38;;;;;;;9.13;1.08;;;;;;;;;;4967607;28;20043;-89
2022/12/29 10:51:24;;;;;;;7.00;1.25;;;;;;;;;;4964862;28;20047;-89
2022/12/29 10:54:27;;;;;;;7.38;1.20;;;;;;;;;;4965026;28;20166;-90
2022/12/29 10:57:08;;;;;;;6.38;1.48;;;;;;;;;;4971905;28;20038;-91
2022/12/29 10:59:37;;;;;;;6.88;1.40;;;;;;;;;;4991083;28;20031;-91
2022/12/29 11:02:09;;;;;;;6.28;1.25;;;;;;;;;;4974495;28;20138;-90
2022/12/29 11:05:25;;;;;;;8.93;1.33;;;;;;;;;;4977195;28;20034;-90
2022/12/29 11:07:57;;;;;;;3.13;0.90;;;;;;;;;;4974381;28;20039;-90
2022/12/29 11:11:06;;;;;;;5.60;1.10;;;;;;;;;;4971339;28;20045;-91
2022/12/29 11:13:51;;;;;;;3.50;0.90;;;;;;;;;;4980186;28;20095;-91
2022/12/29 11:16:31;;;;;;;3.85;1.05;;;;;;;;;;4969681;28;20040;-90
2022/12/29 11:19:01;;;;;;;5.40;2.00;;;;;;;;;;4969453;28;20818;-90
2022/12/29 11:21:33;;;;;;;5.32;0.95;;;;;;;;;;4969899;28;20058;-90
2022/12/29 11:24:23;;;;;;;5.38;1.05;;;;;;;;;;4970601;28;20050;-90
2022/12/29 11:27:14;;;;;;;6.53;1.20;;;;;;;;;;4968739;28;20051;-90
2022/12/29 11:29:42;;;;;;;2.50;1.13;;;;;;;;;;4981748;28;20085;-90
2022/12/29 11:32:18;;;;;;;6.43;1.25;;;;;;;;;;4972352;28;20125;-91
2022/12/29 11:35:30;;;;;;;3.92;1.30;;;;;;;;;;4958451;28;20034;-90
2022/12/29 11:37:58;;;;;;;6.90;1.58;;;;;;;;;;4973904;28;20420;-87
2022/12/29 11:40:26;;;;;;;6.72;1.00;;;;;;;;;;4966681;28;20047;-89
2022/12/29 11:43:39;;;;;;;7.32;0.85;;;;;;;;;;4967949;28;20035;-90
2022/12/29 11:46:06;;;;;;;6.40;0.90;;;;;;;;;;4964911;28;20138;-89
2022/12/29 11:48:44;;;;;;;2.72;0.90;;;;;;;;;;4969230;28;20520;-89
2022/12/29 11:51:20;;;;;;;4.72;0.82;;;;;;;;;;4970594;28;20043;-88
2022/12/29 11:53:57;;;;;;;3.28;1.00;;;;;;;;;;4958468;28;20066;-88
2022/12/29 11:56:37;;;;;;;4.07;0.80;;;;;;;;;;4973328;28;20062;-89
2022/12/29 11:59:26;;;;;;;3.78;1.00;;;;;;;;;;4976674;28;20043;-88
2022/12/29 12:02:31;;;;;;;3.83;1.05;;;;;;;;;;4971551;28;20028;-88
2022/12/29 12:05:52;;;;;;;3.22;1.00;;;;;;;;;;4967073;28;20150;-88
2022/12/29 12:08:29;;;;;;;5.80;0.82;;;;;;;;;;4973959;28;20047;-88
2022/12/29 12:11:20;;;;;;;4.85;0.93;;;;;;;;;;4971486;28;20039;-88
2022/12/29 12:13:55;;;;;;;6.13;0.85;;;;;;;;;;4971659;28;20087;-88
2022/12/29 12:16:44;;;;;;;3.67;1.40;;;;;;;;;;4972453;28;20047;-88
2022/12/29 12:19:33;;;;;;;2.85;0.95;;;;;;;;;;4970735;28;20043;-87
2022/12/29 12:22:32;;;;;;;3.22;0.77;;;;;;;;;;4966029;28;20519;-87
2022/12/29 12:25:11;;;;;;;3.83;0.75;;;;;;;;;;4964386;28;20043;-87
2022/12/29 12:27:48;;;;;;;6.30;1.15;;;;;;;;;;4951064;28;20047;-89
2022/12/29 12:30:18;;;;;;;7.25;1.30;;;;;;;;;;4967969;28;20145;-87
2022/12/29 12:32:58;;;;;;;4.97;0.75;;;;;;;;;;4964644;28;20924;-88
2022/12/29 12:35:34;;;;;;;2.67;1.00;;;;;;;;;;4964310;28;20046;-88
2022/12/29 12:38:57;;;;;;;3.67;1.17;;;;;;;;;;4963765;28;20114;-88
2022/12/29 12:42:19;;;;;;;6.10;1.00;;;;;;;;;;4967347;28;20489;-87
2022/12/29 12:45:04;;;;;;;7.72;1.00;;;;;;;;;;4966296;28;20047;-88
2022/12/29 12:48:02;;;;;;;3.92;0.88;;;;;;;;;;4977946;28;20057;-88
2022/12/29 12:50:46;;;;;;;2.90;1.05;;;;;;;;;;4975418;28;20047;-88
2022/12/29 12:53:31;;;;;;;4.70;0.93;;;;;;;;;;4978058;28;20043;-88
2022/12/29 12:56:06;;;;;;;5.45;1.10;;;;;;;;;;4989311;28;20849;-88
2022/12/29 12:58:49;;;;;;;9.52;1.20;;;;;;;;;;4976302;28;20524;-88
2022/12/29 13:01:36;;;;;;;4.20;1.15;;;;;;;;;;4970554;28;20039;-87
2022/12/29 13:04:34;;;;;;;7.78;1.13;;;;;;;;;;4972342;28;20043;-88
2022/12/29 13:07:21;;;;;;;6.75;1.10;;;;;;;;;;4977457;28;20045;-88
2022/12/29 13:10:16;;;;;;;7.28;1.20;;;;;;;;;;4986372;28;20043;-87
2022/12/29 13:13:00;;;;;;;3.00;0.60;;;;;;;;;;4977363;28;20043;-88
2022/12/29 13:15:52;;;;;;;7.30;1.10;;;;;;;;;;4970071;28;20051;-88
2022/12/29 13:18:44;;;;;;;4.65;0.88;;;;;;;;;;4984293;28;20039;-88
2022/12/29 13:21:28;;;;;;;5.82;1.33;;;;;;;;;;4968825;28;20067;-88
2022/12/29 13:24:34;;;;;;;5.80;1.20;;;;;;;;;;4972806;28;20523;-88
2022/12/29 13:27:09;;;;;;;10.52;1.10;;;;;;;;;;4974519;28;20133;-89
2022/12/29 13:29:48;;;;;;;3.90;1.08;;;;;;;;;;4973897;28;20043;-88
2022/12/29 13:32:40;;;;;;;4.95;1.25;;;;;;;;;;4977016;28;20038;-88
2022/12/29 13:35:53;;;;;;;8.27;1.50;;;;;;;;;;4991226;28;20038;-88
2022/12/29 13:38:46;;;;;;;10.77;1.58;;;;;;;;;;4940584;29;20406;-88
2022/12/29 13:41:32;;;;;;;8.75;1.23;;;;;;;;;;4941035;29;20057;-88
2022/12/29 13:44:03;;;;;;;4.68;0.80;;;;;;;;;;4924980;29;20071;-88
2022/12/29 13:46:37;;;;;;;4.80;1.10;;;;;;;;;;4942112;29;20078;-89
2022/12/29 13:49:13;;;;;;;5.97;1.05;;;;;;;;;;4941348;29;20066;-89
2022/12/29 13:51:57;;;;;;;4.32;1.10;;;;;;;;;;4923633;29;20083;-89
2022/12/29 13:54:57;;;;;;;5.50;1.30;;;;;;;;;;4938292;29;20051;-89
2022/12/29 13:57:53;;;;;;;6.75;1.27;;;;;;;;;;4941656;29;20068;-89
2022/12/29 14:00:31;;;;;;;5.82;1.13;;;;;;;;;;4939981;29;20127;-89
2022/12/29 14:03:20;;;;;;;8.52;1.15;;;;;;;;;;4942131;29;20047;-89
2022/12/29 14:06:25;;;;;;;8.10;0.88;;;;;;;;;;4941132;29;20050;-89
2022/12/29 14:09:04;;;;;;;4.47;0.90;;;;;;;;;;4923190;29;20047;-89
2022/12/29 14:11:37;;;;;;;4.90;0.98;;;;;;;;;;4926245;29;20052;-89
2022/12/29 14:14:20;;;;;;;4.70;1.15;;;;;;;;;;4944250;28;20069;-88
2022/12/29 14:16:48;;;;;;;6.68;1.02;;;;;;;;;;4986113;28;20045;-89
2022/12/29 14:19:20;;;;;;;5.40;0.93;;;;;;;;;;4984306;28;20059;-89
2022/12/29 14:21:54;;;;;;;3.70;1.00;;;;;;;;;;4956678;28;20563;-89
2022/12/29 14:24:44;;;;;;;4.60;0.80;;;;;;;;;;4972968;28;20038;-89
2022/12/29 14:27:49;;;;;;;3.38;0.90;;;;;;;;;;4972805;28;20039;-89
2022/12/29 14:30:46;;;;;;;7.57;0.77;;;;;;;;;;4985812;28;20071;-89
2022/12/29 14:33:15;;;;;;;2.30;0.70;;;;;;;;;;4971163;28;20050;-89
2022/12/29 14:35:49;;;;;;;2.95;0.70;;;;;;;;;;4977339;28;20035;-89
2022/12/29 14:38:23;;;;;;;3.78;0.65;;;;;;;;;;4972850;28;20034;-88
2022/12/29 14:41:17;;;;;;;2.95;0.68;;;;;;;;;;4972585;28;20126;-88
2022/12/29 14:44:17;;;;;;;3.22;0.68;;;;;;;;;;4970044;28;20490;-89
2022/12/29 14:46:53;;;;;;;2.35;0.70;;;;;;;;;;4963019;28;20051;-89
2022/12/29 14:49:48;;;;;;;3.55;0.75;;;;;;;;;;4986519;28;20198;-89
2022/12/29 14:52:22;;;;;;;4.40;0.70;;;;;;;;;;4969175;28;20035;-88
2022/12/29 14:55:15;;;;;;;3.05;0.68;;;;;;;;;;4969365;28;20460;-88
2022/12/29 14:57:49;;;;;;;3.50;0.82;;;;;;;;;;4966530;28;20043;-89
2022/12/29 15:00:27;;;;;;;5.20;1.10;;;;;;;;;;4987495;28;20051;-88
2022/12/29 15:03:21;;;;;;;1.90;0.70;;;;;;;;;;4969838;28;20039;-89
2022/12/29 15:05:55;;;;;;;6.25;0.75;;;;;;;;;;4959858;28;20043;-89
2022/12/29 15:08:28;;;;;;;5.00;1.30;;;;;;;;;;4970096;28;20064;-89
2022/12/29 15:11:09;;;;;;;6.35;1.20;;;;;;;;;;4972638;28;20046;-89
2022/12/29 15:13:42;;;;;;;3.20;0.70;;;;;;;;;;4975920;28;20031;-89
2022/12/29 15:16:25;;;;;;;8.57;1.45;;;;;;;;;;4968115;28;20456;-88
2022/12/29 15:18:59;;;;;;;4.97;0.90;;;;;;;;;;4972541;28;20134;-88
2022/12/29 15:21:29;;;;;;;4.95;0.90;;;;;;;;;;4984530;28;20054;-89
2022/12/29 15:24:22;;;;;;;5.82;0.98;;;;;;;;;;4970352;28;20050;-89
2022/12/29 15:26:51;;;;;;;8.98;1.40;;;;;;;;;;4972738;28;20544;-89
2022/12/29 15:30:01;;;;;;;5.03;1.00;;;;;;;;;;4988008;28;20042;-88
2022/12/29 15:32:40;;;;;;;4.32;1.10;;;;;;;;;;4913725;29;20063;-88
2022/12/29 15:35:31;;;;;;;6.95;1.65;;;;;;;;;;4905835;29;20075;-89
2022/12/29 15:38:03;;;;;;;6.60;1.63;;;;;;;;;;4917486;29;20045;-89
2022/12/29 15:40:32;;;;;;;3.50;1.13;;;;;;;;;;4903244;29;20048;-89
2022/12/29 15:43:02;;;;;;;6.57;1.25;;;;;;;;;;4922185;29;20090;-89
2022/12/29 15:45:54;;;;;;;5.93;0.90;;;;;;;;;;4922444;29;20052;-89
2022/12/29 15:48:24;;;;;;;5.47;0.98;;;;;;;;;;4921748;29;20499;-88
2022/12/29 15:50:52;;;;;;;8.68;1.23;;;;;;;;;;4903881;29;20059;-89
2022/12/29 15:53:28;;;;;;;12.05;1.80;;;;;;;;;;4918836;29;20465;-88
2022/12/29 15:56:20;;;;;;;4.32;1.92;;;;;;;;;;4909239;29;20040;-88
2022/12/29 15:58:52;;;;;;;4.10;1.13;;;;;;;;;;4898608;29;20050;-89
2022/12/29 16:01:32;;;;;;;5.93;1.60;;;;;;;;;;4903869;29;20053;-89
2022/12/29 16:04:03;;;;;;;5.93;1.75;;;;;;;;;;4900827;29;20442;-89
2022/12/29 16:06:32;;;;;;;5.50;1.58;;;;;;;;;;4904072;29;20060;-88
2022/12/29 16:09:06;;;;;;;4.00;1.73;;;;;;;;;;4969184;28;20106;-89
2022/12/29 16:11:38;;;;;;;6.07;1.55;;;;;;;;;;4961529;28;20035;-89
2022/12/29 16:14:09;;;;;;;6.50;1.75;;;;;;;;;;4974687;28;20487;-88
2022/12/29 16:16:41;;;;;;;6.97;1.60;;;;;;;;;;4975225;28;20105;-89
2022/12/29 16:19:27;;;;;;;5.35;1.48;;;;;;;;;;4977158;28;20039;-88
2022/12/29 16:22:33;;;;;;;5.55;1.75;;;;;;;;;;4972910;28;20035;-89
2022/12/29 16:25:09;;;;;;;6.50;1.83;;;;;;;;;;4973768;28;20070;-88
2022/12/29 16:27:39;;;;;;;3.90;1.40;;;;;;;;;;4971200;28;20261;-88
2022/12/29 16:30:24;;;;;;;9.25;1.58;;;;;;;;;;4957857;28;20034;-88
2022/12/29 16:33:05;;;;;;;10.45;4.03;;;;;;;;;;4985443;28;20794;-88
2022/12/29 16:35:42;;;;;;;6.57;1.90;;;;;;;;;;4979405;28;20669;-88